sensor_id;sensor_type;location;lat;lon;timestamp;P1;durP1;ratioP1;P2;durP2;ratioP2
61112;SDS011;47184;57.998;56.184;2023-04-01T00:00:52;4.65;;;1.13;;
61112;SDS011;47184;57.998;56.184;2023-04-01T00:03:19;12.25;;;1.17;;
61112;SDS011;47184;57.998;56.184;2023-04-01T00:05:46;2.42;;;0.77;;
61112;SDS011;47184;57.998;56.184;2023-04-01T00:08:12;1.50;;;0.70;;
61112;SDS011;47184;57.998;56.184;2023-04-01T00:10:39;5.03;;;0.90;;
61112;SDS011;47184;57.998;56.184;2023-04-01T00:13:05;2.85;;;0.88;;
61112;SDS011;47184;57.998;56.184;2023-04-01T00:15:31;6.25;;;1.30;;
61112;SDS011;47184;57.998;56.184;2023-04-01T00:17:57;0.57;;;0.40;;
61112;SDS011;47184;57.998;56.184;2023-04-01T00:20:24;0.70;;;0.40;;
61112;SDS011;47184;57.998;56.184;2023-04-01T00:22:50;1.80;;;0.95;;
61112;SDS011;47184;57.998;56.184;2023-04-01T00:25:16;6.53;;;1.40;;
61112;SDS011;47184;57.998;56.184;2023-04-01T00:27:42;6.15;;;1.20;;
61112;SDS011;47184;57.998;56.184;2023-04-01T00:30:09;3.40;;;1.38;;
61112;SDS011;47184;57.998;56.184;2023-04-01T00:32:35;1.23;;;0.52;;
61112;SDS011;47184;57.998;56.184;2023-04-01T00:35:02;2.60;;;1.00;;
61112;SDS011;47184;57.998;56.184;2023-04-01T00:37:29;7.88;;;1.20;;
61112;SDS011;47184;57.998;56.184;2023-04-01T00:39:56;2.63;;;1.40;;
61112;SDS011;47184;57.998;56.184;2023-04-01T00:42:22;0.65;;;0.38;;
61112;SDS011;47184;57.998;56.184;2023-04-01T00:44:53;8.68;;;1.58;;
61112;SDS011;47184;57.998;56.184;2023-04-01T00:47:20;3.97;;;1.17;;
61112;SDS011;47184;57.998;56.184;2023-04-01T00:49:49;3.15;;;0.90;;
61112;SDS011;47184;57.998;56.184;2023-04-01T00:52:19;7.50;;;1.35;;
61112;SDS011;47184;57.998;56.184;2023-04-01T00:54:50;4.10;;;0.90;;
61112;SDS011;47184;57.998;56.184;2023-04-01T00:57:27;4.28;;;1.05;;
61112;SDS011;47184;57.998;56.184;2023-04-01T00:59:59;3.63;;;0.98;;
61112;SDS011;47184;57.998;56.184;2023-04-01T01:02:25;3.85;;;1.38;;
61112;SDS011;47184;57.998;56.184;2023-04-01T01:04:51;1.35;;;0.60;;
61112;SDS011;47184;57.998;56.184;2023-04-01T01:12:39;4.57;;;1.05;;
61112;SDS011;47184;57.998;56.184;2023-04-01T01:23:22;4.53;;;1.70;;
61112;SDS011;47184;57.998;56.184;2023-04-01T01:36:47;5.50;;;1.23;;
61112;SDS011;47184;57.998;56.184;2023-04-01T01:39:17;4.85;;;0.90;;
61112;SDS011;47184;57.998;56.184;2023-04-01T01:41:46;9.18;;;1.17;;
61112;SDS011;47184;57.998;56.184;2023-04-01T01:44:15;5.47;;;1.50;;
61112;SDS011;47184;57.998;56.184;2023-04-01T01:46:43;4.72;;;1.55;;
61112;SDS011;47184;57.998;56.184;2023-04-01T01:49:10;3.63;;;1.25;;
61112;SDS011;47184;57.998;56.184;2023-04-01T01:51:38;4.43;;;1.40;;
61112;SDS011;47184;57.998;56.184;2023-04-01T01:54:11;2.63;;;1.00;;
61112;SDS011;47184;57.998;56.184;2023-04-01T01:56:39;2.63;;;1.00;;
61112;SDS011;47184;57.998;56.184;2023-04-01T01:59:10;7.40;;;1.30;;
61112;SDS011;47184;57.998;56.184;2023-04-01T02:01:39;3.55;;;0.85;;
61112;SDS011;47184;57.998;56.184;2023-04-01T02:04:13;0.93;;;0.60;;
61112;SDS011;47184;57.998;56.184;2023-04-01T02:06:42;3.88;;;0.70;;
61112;SDS011;47184;57.998;56.184;2023-04-01T02:09:15;1.85;;;0.82;;
61112;SDS011;47184;57.998;56.184;2023-04-01T02:17:17;2.85;;;1.20;;
61112;SDS011;47184;57.998;56.184;2023-04-01T02:19:48;5.38;;;1.90;;
61112;SDS011;47184;57.998;56.184;2023-04-01T02:22:20;3.42;;;1.73;;
61112;SDS011;47184;57.998;56.184;2023-04-01T02:24:50;2.67;;;1.30;;
61112;SDS011;47184;57.998;56.184;2023-04-01T02:27:19;2.80;;;1.50;;
61112;SDS011;47184;57.998;56.184;2023-04-01T02:29:46;2.92;;;1.08;;
61112;SDS011;47184;57.998;56.184;2023-04-01T02:32:12;4.82;;;2.00;;
61112;SDS011;47184;57.998;56.184;2023-04-01T02:34:40;1.75;;;0.93;;
61112;SDS011;47184;57.998;56.184;2023-04-01T02:37:06;2.80;;;1.52;;
61112;SDS011;47184;57.998;56.184;2023-04-01T02:39:32;3.38;;;1.65;;
61112;SDS011;47184;57.998;56.184;2023-04-01T02:41:59;4.60;;;1.67;;
61112;SDS011;47184;57.998;56.184;2023-04-01T02:44:25;3.38;;;1.45;;
61112;SDS011;47184;57.998;56.184;2023-04-01T02:46:51;1.65;;;0.75;;
61112;SDS011;47184;57.998;56.184;2023-04-01T02:49:18;4.20;;;1.38;;
61112;SDS011;47184;57.998;56.184;2023-04-01T02:51:44;5.07;;;1.90;;
61112;SDS011;47184;57.998;56.184;2023-04-01T02:54:11;2.78;;;0.93;;
61112;SDS011;47184;57.998;56.184;2023-04-01T02:56:37;2.58;;;1.23;;
61112;SDS011;47184;57.998;56.184;2023-04-01T02:59:04;16.15;;;1.98;;
61112;SDS011;47184;57.998;56.184;2023-04-01T03:01:30;4.38;;;1.20;;
61112;SDS011;47184;57.998;56.184;2023-04-01T03:03:56;4.18;;;1.42;;
61112;SDS011;47184;57.998;56.184;2023-04-01T03:06:22;7.38;;;1.35;;
61112;SDS011;47184;57.998;56.184;2023-04-01T03:08:48;2.22;;;1.20;;
61112;SDS011;47184;57.998;56.184;2023-04-01T03:11:15;15.05;;;1.50;;
61112;SDS011;47184;57.998;56.184;2023-04-01T03:13:41;6.15;;;2.15;;
61112;SDS011;47184;57.998;56.184;2023-04-01T03:16:08;9.50;;;2.00;;
61112;SDS011;47184;57.998;56.184;2023-04-01T03:18:34;3.50;;;1.63;;
61112;SDS011;47184;57.998;56.184;2023-04-01T03:21:16;2.90;;;1.48;;
61112;SDS011;47184;57.998;56.184;2023-04-01T03:23:44;2.53;;;0.75;;
61112;SDS011;47184;57.998;56.184;2023-04-01T03:26:11;8.35;;;3.17;;
61112;SDS011;47184;57.998;56.184;2023-04-01T03:28:38;8.02;;;2.33;;
61112;SDS011;47184;57.998;56.184;2023-04-01T03:31:05;2.63;;;1.25;;
61112;SDS011;47184;57.998;56.184;2023-04-01T03:33:39;2.78;;;1.45;;
61112;SDS011;47184;57.998;56.184;2023-04-01T03:36:05;4.28;;;2.03;;
61112;SDS011;47184;57.998;56.184;2023-04-01T03:38:32;2.65;;;1.27;;
61112;SDS011;47184;57.998;56.184;2023-04-01T03:40:59;7.72;;;1.67;;
61112;SDS011;47184;57.998;56.184;2023-04-01T03:43:25;6.07;;;1.88;;
61112;SDS011;47184;57.998;56.184;2023-04-01T03:45:52;3.30;;;1.27;;
61112;SDS011;47184;57.998;56.184;2023-04-01T03:48:20;4.80;;;1.45;;
61112;SDS011;47184;57.998;56.184;2023-04-01T03:50:46;5.60;;;1.67;;
61112;SDS011;47184;57.998;56.184;2023-04-01T03:53:13;7.95;;;2.15;;
61112;SDS011;47184;57.998;56.184;2023-04-01T03:55:43;2.83;;;1.45;;
61112;SDS011;47184;57.998;56.184;2023-04-01T03:58:13;6.07;;;3.30;;
61112;SDS011;47184;57.998;56.184;2023-04-01T04:00:40;2.22;;;1.38;;
61112;SDS011;47184;57.998;56.184;2023-04-01T04:03:06;3.88;;;1.67;;
61112;SDS011;47184;57.998;56.184;2023-04-01T04:05:34;5.20;;;2.13;;
61112;SDS011;47184;57.998;56.184;2023-04-01T04:08:01;3.17;;;1.45;;
61112;SDS011;47184;57.998;56.184;2023-04-01T04:10:27;6.72;;;2.88;;
61112;SDS011;47184;57.998;56.184;2023-04-01T04:12:54;2.25;;;1.13;;
61112;SDS011;47184;57.998;56.184;2023-04-01T04:15:23;5.60;;;1.38;;
61112;SDS011;47184;57.998;56.184;2023-04-01T04:17:49;12.68;;;2.15;;
61112;SDS011;47184;57.998;56.184;2023-04-01T04:20:16;3.55;;;1.88;;
61112;SDS011;47184;57.998;56.184;2023-04-01T04:22:43;8.05;;;2.72;;
61112;SDS011;47184;57.998;56.184;2023-04-01T04:25:10;13.15;;;3.60;;
61112;SDS011;47184;57.998;56.184;2023-04-01T04:27:38;15.65;;;3.80;;
61112;SDS011;47184;57.998;56.184;2023-04-01T04:30:07;3.78;;;1.83;;
61112;SDS011;47184;57.998;56.184;2023-04-01T04:32:35;8.05;;;2.53;;
61112;SDS011;47184;57.998;56.184;2023-04-01T04:35:02;6.63;;;2.28;;
61112;SDS011;47184;57.998;56.184;2023-04-01T04:37:29;3.00;;;1.30;;
61112;SDS011;47184;57.998;56.184;2023-04-01T04:39:55;2.83;;;1.48;;
61112;SDS011;47184;57.998;56.184;2023-04-01T04:42:21;15.65;;;3.22;;
61112;SDS011;47184;57.998;56.184;2023-04-01T04:44:53;3.25;;;1.30;;
61112;SDS011;47184;57.998;56.184;2023-04-01T04:47:19;5.32;;;2.13;;
61112;SDS011;47184;57.998;56.184;2023-04-01T04:49:45;5.60;;;2.33;;
61112;SDS011;47184;57.998;56.184;2023-04-01T04:52:13;6.28;;;2.40;;
61112;SDS011;47184;57.998;56.184;2023-04-01T04:54:40;5.85;;;2.95;;
61112;SDS011;47184;57.998;56.184;2023-04-01T04:57:06;3.45;;;1.98;;
61112;SDS011;47184;57.998;56.184;2023-04-01T04:59:38;7.40;;;2.85;;
61112;SDS011;47184;57.998;56.184;2023-04-01T05:02:10;12.25;;;3.30;;
61112;SDS011;47184;57.998;56.184;2023-04-01T05:04:36;7.18;;;2.40;;
61112;SDS011;47184;57.998;56.184;2023-04-01T05:07:07;11.90;;;3.38;;
61112;SDS011;47184;57.998;56.184;2023-04-01T05:09:33;5.95;;;2.47;;
61112;SDS011;47184;57.998;56.184;2023-04-01T05:11:59;6.80;;;1.17;;
61112;SDS011;47184;57.998;56.184;2023-04-01T05:14:35;7.43;;;2.60;;
61112;SDS011;47184;57.998;56.184;2023-04-01T05:17:10;11.68;;;4.45;;
61112;SDS011;47184;57.998;56.184;2023-04-01T05:19:38;4.88;;;1.80;;
61112;SDS011;47184;57.998;56.184;2023-04-01T05:22:05;10.48;;;3.05;;
61112;SDS011;47184;57.998;56.184;2023-04-01T05:24:33;4.50;;;1.33;;
61112;SDS011;47184;57.998;56.184;2023-04-01T05:26:59;7.80;;;2.83;;
61112;SDS011;47184;57.998;56.184;2023-04-01T05:29:26;10.85;;;2.97;;
61112;SDS011;47184;57.998;56.184;2023-04-01T05:32:03;5.78;;;2.55;;
61112;SDS011;47184;57.998;56.184;2023-04-01T05:34:31;3.53;;;1.92;;
61112;SDS011;47184;57.998;56.184;2023-04-01T05:36:58;1.92;;;1.27;;
61112;SDS011;47184;57.998;56.184;2023-04-01T05:39:24;6.03;;;2.50;;
61112;SDS011;47184;57.998;56.184;2023-04-01T05:41:50;11.80;;;2.10;;
61112;SDS011;47184;57.998;56.184;2023-04-01T05:44:16;13.10;;;2.85;;
61112;SDS011;47184;57.998;56.184;2023-04-01T05:46:42;16.30;;;1.60;;
61112;SDS011;47184;57.998;56.184;2023-04-01T05:49:21;6.40;;;2.22;;
61112;SDS011;47184;57.998;56.184;2023-04-01T05:51:49;3.72;;;1.55;;
61112;SDS011;47184;57.998;56.184;2023-04-01T05:54:17;3.63;;;1.88;;
61112;SDS011;47184;57.998;56.184;2023-04-01T05:56:44;4.63;;;2.05;;
61112;SDS011;47184;57.998;56.184;2023-04-01T05:59:11;6.75;;;3.42;;
61112;SDS011;47184;57.998;56.184;2023-04-01T06:01:37;4.47;;;1.95;;
61112;SDS011;47184;57.998;56.184;2023-04-01T06:04:04;2.45;;;1.52;;
61112;SDS011;47184;57.998;56.184;2023-04-01T06:06:31;11.27;;;4.65;;
61112;SDS011;47184;57.998;56.184;2023-04-01T06:09:19;7.47;;;2.40;;
61112;SDS011;47184;57.998;56.184;2023-04-01T06:20:25;12.05;;;3.75;;
61112;SDS011;47184;57.998;56.184;2023-04-01T06:26:07;6.70;;;2.22;;
61112;SDS011;47184;57.998;56.184;2023-04-01T06:39:35;7.70;;;4.85;;
61112;SDS011;47184;57.998;56.184;2023-04-01T06:54:40;11.02;;;4.28;;
61112;SDS011;47184;57.998;56.184;2023-04-01T06:57:34;16.50;;;5.38;;
61112;SDS011;47184;57.998;56.184;2023-04-01T07:00:18;4.45;;;2.35;;
61112;SDS011;47184;57.998;56.184;2023-04-01T07:03:33;12.65;;;3.70;;
61112;SDS011;47184;57.998;56.184;2023-04-01T07:06:23;11.27;;;3.75;;
61112;SDS011;47184;57.998;56.184;2023-04-01T07:08:56;9.95;;;3.78;;
61112;SDS011;47184;57.998;56.184;2023-04-01T07:11:49;11.38;;;4.97;;
61112;SDS011;47184;57.998;56.184;2023-04-01T07:14:41;5.10;;;2.47;;
61112;SDS011;47184;57.998;56.184;2023-04-01T07:17:25;15.52;;;5.72;;
61112;SDS011;47184;57.998;56.184;2023-04-01T07:20:02;13.02;;;5.22;;
61112;SDS011;47184;57.998;56.184;2023-04-01T07:23:02;15.25;;;4.45;;
61112;SDS011;47184;57.998;56.184;2023-04-01T07:25:46;9.50;;;3.97;;
61112;SDS011;47184;57.998;56.184;2023-04-01T07:28:30;19.83;;;6.55;;
61112;SDS011;47184;57.998;56.184;2023-04-01T07:34:06;18.02;;;3.60;;
61112;SDS011;47184;57.998;56.184;2023-04-01T07:36:46;12.20;;;3.72;;
61112;SDS011;47184;57.998;56.184;2023-04-01T07:53:58;21.85;;;4.95;;
61112;SDS011;47184;57.998;56.184;2023-04-01T07:59:43;7.90;;;3.28;;
61112;SDS011;47184;57.998;56.184;2023-04-01T08:02:28;8.00;;;3.92;;
61112;SDS011;47184;57.998;56.184;2023-04-01T08:11:04;16.88;;;3.40;;
61112;SDS011;47184;57.998;56.184;2023-04-01T08:14:04;14.68;;;5.18;;
61112;SDS011;47184;57.998;56.184;2023-04-01T08:20:14;8.38;;;3.63;;
61112;SDS011;47184;57.998;56.184;2023-04-01T08:22:48;3.05;;;1.50;;
61112;SDS011;47184;57.998;56.184;2023-04-01T08:25:28;19.85;;;4.50;;
61112;SDS011;47184;57.998;56.184;2023-04-01T08:30:52;4.80;;;2.00;;
61112;SDS011;47184;57.998;56.184;2023-04-01T08:33:45;4.75;;;2.45;;
61112;SDS011;47184;57.998;56.184;2023-04-01T08:36:36;8.35;;;3.88;;
61112;SDS011;47184;57.998;56.184;2023-04-01T08:39:21;7.57;;;3.85;;
61112;SDS011;47184;57.998;56.184;2023-04-01T08:51:10;4.75;;;1.75;;
61112;SDS011;47184;57.998;56.184;2023-04-01T09:05:32;4.40;;;2.17;;
61112;SDS011;47184;57.998;56.184;2023-04-01T09:08:28;2.22;;;1.00;;
61112;SDS011;47184;57.998;56.184;2023-04-01T09:28:58;8.85;;;2.13;;
61112;SDS011;47184;57.998;56.184;2023-04-01T09:37:34;4.05;;;1.58;;
61112;SDS011;47184;57.998;56.184;2023-04-01T09:40:15;4.78;;;2.15;;
61112;SDS011;47184;57.998;56.184;2023-04-01T09:43:23;5.00;;;1.50;;
61112;SDS011;47184;57.998;56.184;2023-04-01T09:53:35;6.78;;;2.58;;
61112;SDS011;47184;57.998;56.184;2023-04-01T09:59:01;2.45;;;1.13;;
61112;SDS011;47184;57.998;56.184;2023-04-01T10:16:49;1.52;;;1.08;;
61112;SDS011;47184;57.998;56.184;2023-04-01T10:25:27;2.65;;;1.60;;
61112;SDS011;47184;57.998;56.184;2023-04-01T10:55:31;2.47;;;0.90;;
61112;SDS011;47184;57.998;56.184;2023-04-01T11:31:40;3.70;;;1.20;;
61112;SDS011;47184;57.998;56.184;2023-04-01T11:34:34;1.48;;;1.08;;
61112;SDS011;47184;57.998;56.184;2023-04-01T11:40:37;1.45;;;1.05;;
61112;SDS011;47184;57.998;56.184;2023-04-01T11:46:23;2.80;;;1.60;;
61112;SDS011;47184;57.998;56.184;2023-04-01T11:49:16;1.95;;;1.08;;
61112;SDS011;47184;57.998;56.184;2023-04-01T12:28:23;1.63;;;1.00;;
61112;SDS011;47184;57.998;56.184;2023-04-01T12:46:24;2.20;;;1.02;;
61112;SDS011;47184;57.998;56.184;2023-04-01T12:54:40;2.03;;;0.75;;
61112;SDS011;47184;57.998;56.184;2023-04-01T12:57:23;3.08;;;1.33;;
61112;SDS011;47184;57.998;56.184;2023-04-01T13:03:05;1.70;;;0.90;;
61112;SDS011;47184;57.998;56.184;2023-04-01T13:11:57;2.28;;;0.88;;
61112;SDS011;47184;57.998;56.184;2023-04-01T13:18:07;0.52;;;0.30;;
61112;SDS011;47184;57.998;56.184;2023-04-01T13:20:44;1.83;;;0.93;;
61112;SDS011;47184;57.998;56.184;2023-04-01T13:24:03;4.93;;;1.27;;
61112;SDS011;47184;57.998;56.184;2023-04-01T13:28:56;3.72;;;1.50;;
61112;SDS011;47184;57.998;56.184;2023-04-01T13:37:17;3.25;;;1.25;;
61112;SDS011;47184;57.998;56.184;2023-04-01T14:03:02;6.25;;;1.70;;
61112;SDS011;47184;57.998;56.184;2023-04-01T14:08:33;1.13;;;0.80;;
61112;SDS011;47184;57.998;56.184;2023-04-01T14:26:03;4.30;;;1.00;;
61112;SDS011;47184;57.998;56.184;2023-04-01T14:34:16;1.70;;;0.93;;
61112;SDS011;47184;57.998;56.184;2023-04-01T14:48:36;1.75;;;1.15;;
61112;SDS011;47184;57.998;56.184;2023-04-01T14:51:15;2.85;;;0.80;;
61112;SDS011;47184;57.998;56.184;2023-04-01T14:54:08;4.07;;;1.00;;
61112;SDS011;47184;57.998;56.184;2023-04-01T14:56:49;1.30;;;0.68;;
61112;SDS011;47184;57.998;56.184;2023-04-01T14:59:45;4.60;;;1.15;;
61112;SDS011;47184;57.998;56.184;2023-04-01T15:05:01;0.50;;;0.30;;
61112;SDS011;47184;57.998;56.184;2023-04-01T15:16:06;1.65;;;0.90;;
61112;SDS011;47184;57.998;56.184;2023-04-01T15:21:44;1.38;;;0.50;;
61112;SDS011;47184;57.998;56.184;2023-04-01T15:28:14;1.63;;;0.90;;
61112;SDS011;47184;57.998;56.184;2023-04-01T15:30:48;2.40;;;0.60;;
61112;SDS011;47184;57.998;56.184;2023-04-01T15:39:28;2.85;;;0.95;;
61112;SDS011;47184;57.998;56.184;2023-04-01T15:55:30;1.95;;;1.02;;
61112;SDS011;47184;57.998;56.184;2023-04-01T16:01:14;2.20;;;1.10;;
61112;SDS011;47184;57.998;56.184;2023-04-01T16:03:57;3.17;;;1.50;;
61112;SDS011;47184;57.998;56.184;2023-04-01T16:06:37;3.85;;;1.75;;
61112;SDS011;47184;57.998;56.184;2023-04-01T16:09:11;4.40;;;1.50;;
61112;SDS011;47184;57.998;56.184;2023-04-01T16:20:46;2.10;;;1.33;;
61112;SDS011;47184;57.998;56.184;2023-04-01T16:23:42;3.15;;;1.13;;
61112;SDS011;47184;57.998;56.184;2023-04-01T16:26:28;3.65;;;1.30;;
61112;SDS011;47184;57.998;56.184;2023-04-01T16:31:43;3.00;;;1.27;;
61112;SDS011;47184;57.998;56.184;2023-04-01T16:34:20;2.38;;;1.27;;
61112;SDS011;47184;57.998;56.184;2023-04-01T16:36:55;1.90;;;1.20;;
61112;SDS011;47184;57.998;56.184;2023-04-01T16:45:17;3.22;;;1.30;;
61112;SDS011;47184;57.998;56.184;2023-04-01T16:47:54;2.42;;;1.20;;
61112;SDS011;47184;57.998;56.184;2023-04-01T16:50:24;3.83;;;1.40;;
61112;SDS011;47184;57.998;56.184;2023-04-01T16:55:43;1.42;;;0.85;;
61112;SDS011;47184;57.998;56.184;2023-04-01T17:01:01;3.45;;;1.55;;
61112;SDS011;47184;57.998;56.184;2023-04-01T17:03:33;1.92;;;1.17;;
61112;SDS011;47184;57.998;56.184;2023-04-01T17:06:28;3.15;;;1.40;;
61112;SDS011;47184;57.998;56.184;2023-04-01T17:23:19;1.17;;;0.77;;
61112;SDS011;47184;57.998;56.184;2023-04-01T17:25:48;1.90;;;1.27;;
61112;SDS011;47184;57.998;56.184;2023-04-01T17:28:41;3.63;;;1.42;;
61112;SDS011;47184;57.998;56.184;2023-04-01T17:34:00;3.15;;;1.42;;
61112;SDS011;47184;57.998;56.184;2023-04-01T17:39:27;3.42;;;2.17;;
61112;SDS011;47184;57.998;56.184;2023-04-01T17:42:41;1.38;;;0.75;;
61112;SDS011;47184;57.998;56.184;2023-04-01T17:48:23;5.78;;;2.08;;
61112;SDS011;47184;57.998;56.184;2023-04-01T17:56:30;2.75;;;1.67;;
61112;SDS011;47184;57.998;56.184;2023-04-01T18:15:16;4.13;;;2.20;;
61112;SDS011;47184;57.998;56.184;2023-04-01T18:23:51;1.67;;;0.73;;
61112;SDS011;47184;57.998;56.184;2023-04-01T18:26:13;3.13;;;1.13;;
61112;SDS011;47184;57.998;56.184;2023-04-01T18:32:07;1.35;;;0.88;;
61112;SDS011;47184;57.998;56.184;2023-04-01T18:34:54;2.30;;;1.42;;
61112;SDS011;47184;57.998;56.184;2023-04-01T18:37:51;2.15;;;1.45;;
61112;SDS011;47184;57.998;56.184;2023-04-01T18:40:50;2.78;;;1.30;;
61112;SDS011;47184;57.998;56.184;2023-04-01T18:49:05;4.28;;;1.55;;
61112;SDS011;47184;57.998;56.184;2023-04-01T18:51:54;3.78;;;1.75;;
61112;SDS011;47184;57.998;56.184;2023-04-01T18:54:31;2.90;;;1.35;;
61112;SDS011;47184;57.998;56.184;2023-04-01T18:57:16;2.33;;;1.10;;
61112;SDS011;47184;57.998;56.184;2023-04-01T18:59:57;3.40;;;1.98;;
61112;SDS011;47184;57.998;56.184;2023-04-01T19:05:19;1.67;;;1.17;;
61112;SDS011;47184;57.998;56.184;2023-04-01T19:14:09;3.35;;;1.20;;
61112;SDS011;47184;57.998;56.184;2023-04-01T19:22:49;9.05;;;2.08;;
61112;SDS011;47184;57.998;56.184;2023-04-01T19:25:37;4.88;;;2.47;;
61112;SDS011;47184;57.998;56.184;2023-04-01T19:37:11;8.98;;;1.08;;
61112;SDS011;47184;57.998;56.184;2023-04-01T19:40:01;1.42;;;0.90;;
61112;SDS011;47184;57.998;56.184;2023-04-01T19:51:42;3.03;;;1.20;;
61112;SDS011;47184;57.998;56.184;2023-04-01T20:05:28;7.65;;;1.05;;
61112;SDS011;47184;57.998;56.184;2023-04-01T20:08:31;3.88;;;1.70;;
61112;SDS011;47184;57.998;56.184;2023-04-01T20:16:23;4.55;;;2.08;;
61112;SDS011;47184;57.998;56.184;2023-04-01T20:19:50;3.00;;;1.42;;
61112;SDS011;47184;57.998;56.184;2023-04-01T20:25:08;1.65;;;0.90;;
61112;SDS011;47184;57.998;56.184;2023-04-01T20:27:39;0.98;;;0.57;;
61112;SDS011;47184;57.998;56.184;2023-04-01T20:50:15;7.80;;;3.00;;
61112;SDS011;47184;57.998;56.184;2023-04-01T21:26:52;3.07;;;1.40;;
61112;SDS011;47184;57.998;56.184;2023-04-01T21:32:23;2.40;;;1.65;;
61112;SDS011;47184;57.998;56.184;2023-04-01T21:40:32;10.20;;;2.90;;
61112;SDS011;47184;57.998;56.184;2023-04-01T22:08:08;4.87;;;1.83;;
61112;SDS011;47184;57.998;56.184;2023-04-01T22:13:47;2.20;;;1.27;;
61112;SDS011;47184;57.998;56.184;2023-04-01T22:16:20;2.10;;;1.55;;
61112;SDS011;47184;57.998;56.184;2023-04-01T22:18:57;4.30;;;1.55;;
61112;SDS011;47184;57.998;56.184;2023-04-01T22:21:38;1.77;;;1.10;;
61112;SDS011;47184;57.998;56.184;2023-04-01T22:24:20;1.42;;;0.85;;
61112;SDS011;47184;57.998;56.184;2023-04-01T22:27:01;1.88;;;1.23;;
61112;SDS011;47184;57.998;56.184;2023-04-01T22:32:32;0.85;;;0.40;;
61112;SDS011;47184;57.998;56.184;2023-04-01T22:37:45;1.42;;;0.90;;
61112;SDS011;47184;57.998;56.184;2023-04-01T22:40:21;1.83;;;1.10;;
61112;SDS011;47184;57.998;56.184;2023-04-01T22:42:58;4.30;;;1.23;;
61112;SDS011;47184;57.998;56.184;2023-04-01T22:48:26;3.85;;;1.33;;
61112;SDS011;47184;57.998;56.184;2023-04-01T22:51:18;2.17;;;1.20;;
61112;SDS011;47184;57.998;56.184;2023-04-01T22:57:11;3.05;;;1.73;;
61112;SDS011;47184;57.998;56.184;2023-04-01T23:05:02;4.45;;;2.25;;
61112;SDS011;47184;57.998;56.184;2023-04-01T23:10:39;4.22;;;1.52;;
61112;SDS011;47184;57.998;56.184;2023-04-01T23:13:20;4.97;;;2.08;;
61112;SDS011;47184;57.998;56.184;2023-04-01T23:15:52;11.15;;;1.88;;
61112;SDS011;47184;57.998;56.184;2023-04-01T23:27:11;2.65;;;1.30;;
61112;SDS011;47184;57.998;56.184;2023-04-01T23:29:39;2.10;;;0.85;;
61112;SDS011;47184;57.998;56.184;2023-04-01T23:32:05;2.22;;;1.13;;
61112;SDS011;47184;57.998;56.184;2023-04-01T23:34:53;2.35;;;1.40;;
61112;SDS011;47184;57.998;56.184;2023-04-01T23:37:21;2.58;;;1.13;;
61112;SDS011;47184;57.998;56.184;2023-04-01T23:39:50;1.17;;;0.52;;
61112;SDS011;47184;57.998;56.184;2023-04-01T23:42:26;1.90;;;1.10;;
61112;SDS011;47184;57.998;56.184;2023-04-01T23:44:57;4.35;;;2.10;;
61112;SDS011;47184;57.998;56.184;2023-04-01T23:47:28;3.08;;;1.05;;
61112;SDS011;47184;57.998;56.184;2023-04-01T23:50:20;1.25;;;0.98;;
61112;SDS011;47184;57.998;56.184;2023-04-01T23:52:46;2.85;;;1.10;;
